»·PEaware :: C-GTGM KSNA-KSAN

C-GTGM :: KSNA-KSAN

FLIGHT INFORMATION

Flight Status: Arrived
Operator: Privately registered:
Canada
More flights under this callsign
Pilot: Thomas N. (7419)
Aircraft: BEECH AIRCRAFT BEECH AIRLINER
(B190)
More flights by this aircraft type
Origin: KSNA John Wayne-Orange Co
United States
Destination: KSAN San Diego Intl-Lindbergh
United States
More flights between these airports :: More routes between these airports
Route: V25 PACIF V208 LAX118 CARDI MZB320 MZB
File this flight plan on PilotEdge
Remarks:
Altitude:
(Current/Filed)
9,000ft
Speed:
(Current/Filed)
190kts
Departed: 19-Oct-15 02:23 PM
Arrived: 19-Oct-15 02:58 PM
Distance/Time
Traveled:
66nm/0:35
Distance/Time
To Go:
Arrived

Flight Plot

Page will automatically refresh every two minutes.


Map Options




Map Legend


Flown Route
Filed Route
Departure Airport
Arrival Airport
Navaid (VOR, NDB)
Fix

Horizontal Profiles

Position Reports

Time Latitude Longitude Heading Altitude Ground
Speed
19-Oct-15 13:48 33.682407 -117.860352 118 61ft 0kts
19-Oct-15 13:49 33.682407 -117.860352 118 61ft 0kts
19-Oct-15 13:50 33.682407 -117.860352 118 61ft 0kts
19-Oct-15 13:51 33.682407 -117.860352 118 61ft 0kts
19-Oct-15 13:52 33.682407 -117.860352 118 61ft 0kts
19-Oct-15 13:53 33.682407 -117.860352 118 61ft 0kts
19-Oct-15 13:54 33.682407 -117.860352 118 61ft 0kts
19-Oct-15 13:55 33.682407 -117.860352 118 61ft 0kts
19-Oct-15 13:56 33.682407 -117.860352 118 61ft 0kts
19-Oct-15 13:57 33.682407 -117.860352 118 61ft 0kts
19-Oct-15 13:58 33.682407 -117.860352 118 61ft 0kts
19-Oct-15 13:59 33.682407 -117.860352 118 61ft 0kts
19-Oct-15 14:00 33.682407 -117.860352 118 61ft 0kts
19-Oct-15 14:01 33.682407 -117.860352 118 61ft 0kts
19-Oct-15 14:02 33.682407 -117.860352 118 61ft 0kts
19-Oct-15 14:03 33.682407 -117.860352 118 61ft 0kts
19-Oct-15 14:04 33.682407 -117.860352 118 61ft 0kts
19-Oct-15 14:05 33.682407 -117.860352 118 61ft 0kts
19-Oct-15 14:06 33.682407 -117.860352 118 61ft 0kts
19-Oct-15 14:07 33.682407 -117.860352 118 61ft 0kts
19-Oct-15 14:08 33.682407 -117.860352 118 61ft 0kts
19-Oct-15 14:09 33.682407 -117.860352 118 61ft 0kts
19-Oct-15 14:10 33.682407 -117.860352 118 61ft 0kts
19-Oct-15 14:11 33.682534 -117.860398 285 61ft 4kts
19-Oct-15 14:12 33.681324 -117.861918 206 61ft 5kts
19-Oct-15 14:13 33.680092 -117.862687 207 61ft 4kts
19-Oct-15 14:14 33.679755 -117.863120 293 61ft 0kts
19-Oct-15 14:15 33.679755 -117.863120 293 61ft 0kts
19-Oct-15 14:16 33.679755 -117.863120 293 61ft 0kts
19-Oct-15 14:17 33.679755 -117.863120 293 61ft 0kts
19-Oct-15 14:18 33.679757 -117.863125 293 61ft 0kts
19-Oct-15 14:19 33.679991 -117.863630 300 61ft 0kts
19-Oct-15 14:20 33.679991 -117.863630 300 61ft 0kts
19-Oct-15 14:21 33.680740 -117.865278 295 61ft 9kts
19-Oct-15 14:22 33.658203 -117.874312 190 872ft 155kts
19-Oct-15 14:23 33.612645 -117.880895 187 1767ft 172kts
19-Oct-15 14:24 33.565034 -117.887195 187 2663ft 169kts
19-Oct-15 14:25 33.526392 -117.890918 165 3469ft 169kts
19-Oct-15 14:26 33.488466 -117.857462 162 4502ft 168kts
19-Oct-15 14:27 33.445401 -117.836553 164 5451ft 168kts
19-Oct-15 14:28 33.402455 -117.836297 197 6653ft 134kts
19-Oct-15 14:29 33.362313 -117.839219 184 7430ft 152kts
19-Oct-15 14:30 33.330443 -117.810552 125 8538ft 146kts
19-Oct-15 14:31 33.302037 -117.772738 131 9228ft 153kts
19-Oct-15 14:32 33.282654 -117.721722 100 9166ft 181kts
19-Oct-15 14:33 33.273445 -117.659010 99 9141ft 190kts
19-Oct-15 14:34 33.263534 -117.592606 99 8923ft 202kts
19-Oct-15 14:35 33.286306 -117.537058 59 9042ft 190kts
19-Oct-15 14:36 33.312402 -117.478301 83 8935ft 186kts
19-Oct-15 14:37 33.294551 -117.423528 146 8702ft 186kts
19-Oct-15 14:38 33.247906 -117.421062 189 9041ft 163kts
19-Oct-15 14:39 33.200135 -117.424377 173 8880ft 184kts
19-Oct-15 14:40 33.152852 -117.410894 161 8922ft 182kts
19-Oct-15 14:41 33.105513 -117.389314 157 8899ft 183kts
19-Oct-15 14:42 33.056530 -117.364583 161 7903ft 191kts
19-Oct-15 14:43 33.010354 -117.341076 160 5593ft 178kts
19-Oct-15 14:44 32.966719 -117.318727 160 5032ft 167kts
19-Oct-15 14:45 32.923632 -117.296735 159 5035ft 169kts
19-Oct-15 14:46 32.880112 -117.274453 158 5038ft 170kts
19-Oct-15 14:47 32.836322 -117.252029 158 5007ft 170kts
19-Oct-15 14:48 32.792806 -117.229736 157 5015ft 171kts
19-Oct-15 14:49 32.773300 -117.183127 101 5017ft 182kts
19-Oct-15 14:50 32.764798 -117.120556 101 4156ft 205kts
19-Oct-15 14:51 32.758744 -117.052344 91 3176ft 212kts
19-Oct-15 14:52 32.721345 -117.029402 191 3053ft 173kts
19-Oct-15 14:53 32.696118 -117.059799 305 2513ft 181kts
19-Oct-15 14:54 32.715971 -117.105753 269 1285ft 114kts
19-Oct-15 14:55 32.722237 -117.142872 284 605ft 126kts
19-Oct-15 14:56 32.731605 -117.181522 283 23ft 92kts
19-Oct-15 14:57 32.732513 -117.188625 223 22ft 1kts
19-Oct-15 14:58 32.732291 -117.191107 272 22ft 0kts

Navigation Log

Ident Type
Flight plan parsing failed, navigation log unavailable